Time;durP1;ratioP1;P1;durP2;ratioP2;P2;SDS_P1;SDS_P2;PMS_P1;PMS_P2;Temp;Humidity;BMP_temperature;BMP_pressure;BME280_temperature;BME280_humidity;BME280_pressure;Samples;Min_cycle;Max_cycle;Signal;HPM_P1;HPM_P2
2022/10/13 00:00:05;;;;;;;15.05;8.90;;;12.50;76.90;;;;;;5113876;28;20043;-61
2022/10/13 00:02:37;;;;;;;18.17;9.68;;;12.50;76.90;;;;;;5112526;28;20108;-61
2022/10/13 00:05:03;;;;;;;17.05;9.75;;;12.50;76.90;;;;;;5114518;28;20452;-61
2022/10/13 00:07:29;;;;;;;14.82;9.05;;;12.50;76.90;;;;;;5113232;28;20406;-61
2022/10/13 00:09:54;;;;;;;17.20;8.98;;;12.50;77.00;;;;;;5114203;28;20066;-61
2022/10/13 00:12:20;;;;;;;16.33;9.02;;;12.50;77.00;;;;;;5113869;28;20038;-61
2022/10/13 00:14:45;;;;;;;18.52;9.20;;;12.50;77.00;;;;;;5112843;28;20027;-61
2022/10/13 00:17:11;;;;;;;15.85;9.02;;;12.50;77.00;;;;;;5113705;28;20479;-61
2022/10/13 00:19:37;;;;;;;14.55;8.52;;;12.50;77.00;;;;;;5113493;28;20039;-61
2022/10/13 00:22:02;;;;;;;17.35;8.63;;;12.50;77.00;;;;;;5113447;28;20051;-61
2022/10/13 00:24:28;;;;;;;16.52;9.63;;;12.50;77.00;;;;;;5113859;28;20080;-61
2022/10/13 00:26:54;;;;;;;15.20;9.15;;;12.50;77.00;;;;;;5113741;28;20019;-60
2022/10/13 00:29:19;;;;;;;14.25;9.40;;;12.50;77.00;;;;;;5112633;28;20036;-61
2022/10/13 00:31:45;;;;;;;15.48;9.05;;;12.50;77.00;;;;;;5112897;28;20026;-61
2022/10/13 00:34:10;;;;;;;16.17;7.68;;;12.50;77.00;;;;;;5113758;28;20039;-61
2022/10/13 00:36:36;;;;;;;13.90;9.18;;;12.50;77.10;;;;;;5113740;28;20050;-60
2022/10/13 00:39:02;;;;;;;16.52;8.73;;;12.50;77.10;;;;;;5113389;28;20026;-61
2022/10/13 00:41:28;;;;;;;14.55;9.00;;;12.50;77.10;;;;;;5113598;28;20428;-61
2022/10/13 00:43:54;;;;;;;15.13;9.23;;;12.50;77.20;;;;;;5118238;28;20041;-61
2022/10/13 00:46:21;;;;;;;15.10;8.70;;;12.50;77.20;;;;;;5119229;27;20034;-61
2022/10/13 00:48:55;;;;;;;15.98;9.43;;;12.50;77.30;;;;;;5112398;28;20462;-61
2022/10/13 00:51:25;;;;;;;15.02;9.77;;;12.50;77.30;;;;;;5113890;28;20039;-61
2022/10/13 00:53:54;;;;;;;16.10;9.60;;;12.50;77.40;;;;;;5111608;28;20099;-61
2022/10/13 00:56:22;;;;;;;17.13;9.15;;;12.60;77.40;;;;;;5113854;28;20031;-61
2022/10/13 00:58:49;;;;;;;15.52;8.55;;;12.50;77.50;;;;;;5112120;28;20043;-60
2022/10/13 01:01:15;;;;;;;16.13;9.70;;;12.60;77.60;;;;;;5113458;28;20028;-61
2022/10/13 01:03:41;;;;;;;15.35;9.57;;;12.60;77.60;;;;;;5113253;28;20029;-61
2022/10/13 01:06:07;;;;;;;15.32;9.60;;;12.60;77.70;;;;;;5113746;28;20089;-61
2022/10/13 01:08:33;;;;;;;17.33;8.93;;;12.60;77.70;;;;;;5111746;28;20039;-61
2022/10/13 01:11:18;;;;;;;15.00;9.05;;;12.60;78.40;;;;;;5115818;28;20448;-61
2022/10/13 01:14:03;;;;;;;15.52;9.30;;;12.60;77.90;;;;;;5113198;27;20108;-61
2022/10/13 01:16:47;;;;;;;12.88;8.63;;;12.60;77.90;;;;;;5117293;28;20451;-61
2022/10/13 01:19:40;;;;;;;17.75;8.85;;;12.60;77.90;;;;;;5115043;27;20164;-61
2022/10/13 01:22:17;;;;;;;17.08;9.23;;;12.70;78.00;;;;;;5117346;28;20455;-61
2022/10/13 01:24:54;;;;;;;17.98;9.57;;;12.70;78.10;;;;;;5117515;27;20032;-61
2022/10/13 01:27:36;;;;;;;15.68;9.90;;;12.60;78.10;;;;;;5116546;28;20118;-61
2022/10/13 01:30:06;;;;;;;13.48;8.63;;;12.60;78.20;;;;;;5116983;27;20024;-60
2022/10/13 01:33:00;;;;;;;15.02;9.15;;;12.70;78.30;;;;;;5125142;27;20027;-61
2022/10/13 01:36:04;;;;;;;15.20;8.63;;;12.70;78.30;;;;;;5115471;28;20073;-61
2022/10/13 01:38:46;;;;;;;16.95;9.32;;;12.70;78.30;;;;;;5117212;28;20054;-61
2022/10/13 01:41:14;;;;;;;13.82;8.93;;;12.60;78.30;;;;;;5116575;27;20471;-61
2022/10/13 01:43:52;;;;;;;15.25;9.60;;;12.70;78.40;;;;;;5116057;28;20040;-61
2022/10/13 01:46:28;;;;;;;16.63;8.20;;;12.70;78.50;;;;;;5115972;28;20140;-60
2022/10/13 01:48:56;;;;;;;13.65;8.20;;;12.70;78.50;;;;;;5120210;27;20051;-61
2022/10/13 01:51:25;;;;;;;13.65;8.60;;;12.70;78.60;;;;;;5127673;27;20057;-61
2022/10/13 01:53:52;;;;;;;14.90;8.32;;;12.70;78.60;;;;;;5133549;27;20106;-61
2022/10/13 01:56:17;;;;;;;14.93;9.10;;;12.70;78.60;;;;;;5114372;27;20028;-61
2022/10/13 01:58:44;;;;;;;16.95;8.25;;;12.70;78.70;;;;;;5115831;28;20465;-61
2022/10/13 02:01:36;;;;;;;17.27;8.90;;;12.70;78.80;;;;;;5115934;27;20088;-61
2022/10/13 02:04:19;;;;;;;12.40;8.30;;;12.70;78.90;;;;;;5117245;27;20039;-61
2022/10/13 02:06:51;;;;;;;14.75;8.27;;;12.70;78.90;;;;;;5132383;27;20027;-61
2022/10/13 02:09:42;;;;;;;18.08;9.45;;;12.70;79.00;;;;;;5115717;28;20106;-61
2022/10/13 02:12:17;;;;;;;16.48;8.85;;;12.70;79.10;;;;;;5096173;28;20059;-61
2022/10/13 02:14:44;;;;;;;17.33;9.48;;;12.70;79.10;;;;;;5106126;27;20031;-61
2022/10/13 02:17:10;;;;;;;15.77;8.80;;;12.70;79.10;;;;;;5117192;27;20024;-61
2022/10/13 02:19:39;;;;;;;15.80;8.77;;;12.70;79.10;;;;;;5113741;28;20130;-61
2022/10/13 02:22:07;;;;;;;16.58;9.25;;;12.70;79.20;;;;;;5115541;27;20031;-61
2022/10/13 02:24:32;;;;;;;16.33;9.55;;;12.80;79.30;;;;;;5126746;27;20020;-61
2022/10/13 02:26:58;;;;;;;13.75;8.60;;;12.80;79.30;;;;;;5115568;27;20463;-61
2022/10/13 02:29:24;;;;;;;15.43;9.05;;;12.80;79.40;;;;;;5115839;27;20031;-61
2022/10/13 02:31:52;;;;;;;15.93;9.68;;;12.80;79.40;;;;;;5115427;28;20023;-60
2022/10/13 02:34:18;;;;;;;14.45;9.27;;;12.80;79.40;;;;;;5115129;28;20031;-61
2022/10/13 02:36:45;;;;;;;15.55;9.23;;;12.80;79.50;;;;;;5115406;27;20082;-61
2022/10/13 02:39:10;;;;;;;17.50;9.20;;;12.80;79.50;;;;;;5114138;28;20035;-61
2022/10/13 02:41:36;;;;;;;14.18;8.90;;;12.80;79.60;;;;;;5116700;27;20031;-61
2022/10/13 02:44:03;;;;;;;15.35;8.52;;;12.80;79.60;;;;;;5114965;28;20054;-61
2022/10/13 02:46:33;;;;;;;13.85;9.13;;;12.80;79.70;;;;;;5115231;27;20031;-61
2022/10/13 02:48:58;;;;;;;15.90;9.00;;;12.80;79.70;;;;;;5115501;28;20023;-61
2022/10/13 02:51:24;;;;;;;16.17;9.73;;;12.80;79.70;;;;;;5115092;27;20027;-61
2022/10/13 02:53:50;;;;;;;15.45;9.48;;;12.80;79.80;;;;;;5114936;28;20102;-61
2022/10/13 02:56:16;;;;;;;14.90;8.68;;;12.80;79.80;;;;;;5114512;28;20031;-61
2022/10/13 02:58:41;;;;;;;15.27;8.57;;;12.90;79.90;;;;;;5122256;27;20031;-61
2022/10/13 03:01:12;;;;;;;16.30;9.82;;;12.90;79.90;;;;;;5117292;27;20104;-61
2022/10/13 03:03:38;;;;;;;15.23;9.32;;;12.90;80.00;;;;;;5113467;28;20035;-61
2022/10/13 03:06:04;;;;;;;15.52;9.27;;;12.90;80.00;;;;;;5114210;28;20035;-61
2022/10/13 03:08:34;;;;;;;14.23;8.65;;;12.90;80.00;;;;;;5115111;28;20103;-61
2022/10/13 03:10:59;;;;;;;14.65;9.40;;;12.90;80.10;;;;;;5112742;28;20023;-60
2022/10/13 03:13:25;;;;;;;12.73;8.15;;;12.90;80.10;;;;;;5114410;27;20180;-61
2022/10/13 03:15:51;;;;;;;14.88;8.77;;;12.90;80.10;;;;;;5113606;28;20040;-61
2022/10/13 03:18:17;;;;;;;14.25;8.85;;;12.90;80.10;;;;;;5115068;28;20039;-61
2022/10/13 03:20:42;;;;;;;15.57;9.27;;;12.90;80.20;;;;;;5116013;27;20169;-61
2022/10/13 03:23:08;;;;;;;15.75;9.27;;;12.90;80.20;;;;;;5114569;27;20023;-61
2022/10/13 03:25:35;;;;;;;18.52;9.48;;;12.90;80.20;;;;;;5113694;28;20491;-61
2022/10/13 03:28:01;;;;;;;15.20;9.27;;;12.90;80.20;;;;;;5114950;28;20046;-61
2022/10/13 03:30:27;;;;;;;14.88;8.48;;;12.90;80.30;;;;;;5113196;28;20023;-61
2022/10/13 03:32:53;;;;;;;15.70;9.55;;;12.90;80.40;;;;;;5112572;27;20536;-61
2022/10/13 03:35:19;;;;;;;12.90;8.05;;;12.90;80.40;;;;;;5114300;28;20099;-61
2022/10/13 03:37:45;;;;;;;14.00;9.10;;;12.90;80.40;;;;;;5115725;27;20057;-61
2022/10/13 03:40:11;;;;;;;15.60;9.40;;;12.90;80.40;;;;;;5115385;27;20032;-61
2022/10/13 03:42:37;;;;;;;17.63;9.82;;;12.90;80.50;;;;;;5096185;28;20360;-61
2022/10/13 03:45:03;;;;;;;16.75;10.25;;;12.90;80.50;;;;;;5114233;28;20039;-61
2022/10/13 03:47:35;;;;;;;15.80;9.15;;;12.90;80.50;;;;;;5113859;27;20035;-61
2022/10/13 03:50:01;;;;;;;15.05;8.73;;;12.90;80.60;;;;;;5113044;28;20031;-61
2022/10/13 03:52:26;;;;;;;16.92;9.70;;;12.90;80.50;;;;;;5130203;27;20024;-61
2022/10/13 03:54:52;;;;;;;16.10;9.13;;;13.00;80.60;;;;;;5114017;28;20028;-61
2022/10/13 03:57:18;;;;;;;14.85;8.30;;;12.90;80.60;;;;;;5117295;28;20099;-61
2022/10/13 03:59:43;;;;;;;14.88;9.25;;;13.00;80.60;;;;;;5113851;28;20118;-61
2022/10/13 04:02:09;;;;;;;16.70;9.50;;;13.00;80.70;;;;;;5114032;28;20039;-61
2022/10/13 04:04:37;;;;;;;14.15;8.38;;;13.00;80.60;;;;;;5113290;28;20475;-61
2022/10/13 04:07:02;;;;;;;16.00;8.75;;;13.00;80.70;;;;;;5112503;28;20038;-61
2022/10/13 04:09:28;;;;;;;15.48;9.00;;;13.00;80.60;;;;;;5112461;28;20027;-61
2022/10/13 04:11:54;;;;;;;14.32;8.90;;;13.10;80.70;;;;;;5112465;28;20031;-61
2022/10/13 04:14:19;;;;;;;15.95;8.43;;;13.10;80.70;;;;;;5113715;28;20086;-61
2022/10/13 04:16:46;;;;;;;14.13;8.70;;;13.10;80.70;;;;;;5113489;28;20058;-61
2022/10/13 04:19:13;;;;;;;15.15;9.30;;;13.10;80.70;;;;;;5114061;28;20075;-61
2022/10/13 04:21:39;;;;;;;17.48;9.35;;;13.10;80.70;;;;;;5111941;28;20066;-61
2022/10/13 04:24:05;;;;;;;17.48;8.93;;;13.20;80.70;;;;;;5113901;28;20023;-61
2022/10/13 04:26:34;;;;;;;17.00;9.02;;;13.20;80.70;;;;;;5113479;28;20032;-61
2022/10/13 04:29:06;;;;;;;16.83;9.77;;;13.20;80.60;;;;;;5114287;28;20032;-60
2022/10/13 04:31:33;;;;;;;17.27;9.35;;;13.20;80.60;;;;;;5113032;28;20356;-61
2022/10/13 04:33:59;;;;;;;15.88;9.40;;;13.20;80.60;;;;;;5112913;28;20043;-60
2022/10/13 04:36:25;;;;;;;13.90;9.13;;;13.20;80.60;;;;;;5112358;28;20023;-61
2022/10/13 04:38:52;;;;;;;14.43;8.75;;;13.30;80.70;;;;;;5111220;28;20027;-61
2022/10/13 04:41:18;;;;;;;15.82;9.18;;;13.30;80.70;;;;;;5115956;27;20097;-61
2022/10/13 04:43:47;;;;;;;17.10;8.23;;;13.30;80.70;;;;;;5113756;28;20027;-61
2022/10/13 04:46:16;;;;;;;17.20;8.45;;;13.30;80.70;;;;;;5116531;28;20035;-61
2022/10/13 04:48:42;;;;;;;14.52;8.52;;;13.30;80.70;;;;;;5116587;28;20151;-61
2022/10/13 04:51:11;;;;;;;15.88;9.50;;;13.30;80.70;;;;;;5117366;28;20411;-61
2022/10/13 04:53:38;;;;;;;15.50;8.75;;;13.30;80.70;;;;;;5116633;27;20016;-61
2022/10/13 04:56:12;;;;;;;16.02;8.68;;;13.30;80.70;;;;;;5115630;28;20356;-61
2022/10/13 04:58:39;;;;;;;15.30;8.90;;;13.40;80.80;;;;;;5116503;28;20121;-61
2022/10/13 05:01:06;;;;;;;14.48;8.65;;;13.30;80.70;;;;;;5115240;28;20056;-61
2022/10/13 05:03:33;;;;;;;16.48;9.65;;;13.30;80.80;;;;;;5116758;27;20321;-61
2022/10/13 05:05:58;;;;;;;13.52;9.02;;;13.30;80.80;;;;;;5117632;27;20122;-61
2022/10/13 05:08:24;;;;;;;16.88;9.15;;;13.30;80.80;;;;;;5125364;27;20118;-61
2022/10/13 05:10:57;;;;;;;15.23;8.98;;;13.30;80.80;;;;;;5122538;27;20408;-60
2022/10/13 05:13:24;;;;;;;15.88;8.73;;;13.30;80.90;;;;;;5115115;27;20051;-61
2022/10/13 05:15:50;;;;;;;18.58;8.82;;;13.30;80.90;;;;;;5109413;28;20039;-61
2022/10/13 05:18:20;;;;;;;15.48;8.30;;;13.30;81.00;;;;;;5116515;27;20447;-61
2022/10/13 05:20:46;;;;;;;14.82;9.02;;;13.30;81.00;;;;;;5117610;28;20035;-61
2022/10/13 05:23:13;;;;;;;14.82;9.23;;;13.30;81.00;;;;;;5117113;27;20027;-61
2022/10/13 05:25:39;;;;;;;17.20;8.98;;;13.30;81.00;;;;;;5117504;27;20039;-61
2022/10/13 05:28:08;;;;;;;17.77;8.93;;;13.30;81.10;;;;;;5115956;27;20031;-61
2022/10/13 05:30:34;;;;;;;16.45;9.15;;;13.30;81.10;;;;;;5117405;28;20057;-61
2022/10/13 05:33:00;;;;;;;17.10;9.57;;;13.30;81.10;;;;;;5116139;27;20441;-61
2022/10/13 05:35:26;;;;;;;15.90;9.23;;;13.30;81.20;;;;;;5116637;27;20023;-61
2022/10/13 05:37:52;;;;;;;14.80;8.85;;;13.30;81.20;;;;;;5114385;28;20024;-60
2022/10/13 05:40:20;;;;;;;15.00;8.90;;;13.30;81.20;;;;;;5117363;28;20051;-61
2022/10/13 05:42:47;;;;;;;14.95;9.02;;;13.30;81.20;;;;;;5115840;27;20493;-61
2022/10/13 05:45:15;;;;;;;14.35;8.32;;;13.40;81.30;;;;;;5118606;27;20436;-61
2022/10/13 05:47:40;;;;;;;16.38;9.70;;;13.40;81.30;;;;;;5116755;27;20027;-61
2022/10/13 05:50:07;;;;;;;14.98;9.20;;;13.40;81.30;;;;;;5117292;28;20050;-61
2022/10/13 05:52:33;;;;;;;15.18;8.88;;;13.40;81.30;;;;;;5115622;28;20054;-61
2022/10/13 05:55:01;;;;;;;16.10;9.60;;;13.40;81.30;;;;;;5115267;27;20036;-61
2022/10/13 05:57:32;;;;;;;15.70;9.60;;;13.40;81.30;;;;;;5116017;28;20054;-61
2022/10/13 06:00:18;;;;;;;14.75;8.30;;;13.40;81.30;;;;;;5116989;27;20149;-61
2022/10/13 06:02:52;;;;;;;13.32;8.68;;;13.50;81.40;;;;;;5115564;28;20020;-62
2022/10/13 06:05:20;;;;;;;18.52;9.80;;;13.50;81.40;;;;;;5117316;27;20380;-62
2022/10/13 06:07:49;;;;;;;15.18;8.77;;;13.50;81.30;;;;;;5128551;27;20119;-61
2022/10/13 06:10:16;;;;;;;17.50;9.85;;;13.50;81.30;;;;;;5115856;27;20092;-61
2022/10/13 06:12:42;;;;;;;15.65;9.07;;;13.60;81.30;;;;;;5115608;28;20053;-61
2022/10/13 06:15:08;;;;;;;15.93;9.55;;;13.60;81.30;;;;;;5117330;27;20384;-61
2022/10/13 06:17:38;;;;;;;15.45;8.88;;;13.60;81.20;;;;;;5116467;28;20024;-61
2022/10/13 06:20:05;;;;;;;18.35;9.57;;;13.60;81.20;;;;;;5114854;27;20051;-61
2022/10/13 06:22:35;;;;;;;15.25;8.82;;;13.60;81.20;;;;;;5120513;27;20054;-61
2022/10/13 06:25:00;;;;;;;15.45;9.98;;;13.70;81.10;;;;;;5127855;27;20077;-61
2022/10/13 06:27:27;;;;;;;17.95;9.65;;;13.70;81.00;;;;;;5115215;28;20451;-61
2022/10/13 06:29:53;;;;;;;16.02;8.95;;;13.70;81.00;;;;;;5114537;27;20106;-61
2022/10/13 06:32:19;;;;;;;17.83;9.68;;;13.80;81.00;;;;;;5116399;27;20115;-61
2022/10/13 06:34:45;;;;;;;15.50;9.23;;;13.80;80.90;;;;;;5114558;28;20436;-61
2022/10/13 06:37:10;;;;;;;17.27;9.20;;;13.80;80.90;;;;;;5113813;27;20109;-62
2022/10/13 06:39:36;;;;;;;17.17;9.10;;;13.80;80.90;;;;;;5110503;27;20053;-61
2022/10/13 06:42:03;;;;;;;15.75;9.40;;;13.80;80.90;;;;;;5111816;28;20062;-62
2022/10/13 06:44:31;;;;;;;14.40;9.60;;;13.80;81.00;;;;;;5129390;27;20028;-61
2022/10/13 06:47:02;;;;;;;16.10;9.23;;;13.80;81.00;;;;;;5113964;27;20034;-61
2022/10/13 06:49:27;;;;;;;16.35;8.93;;;13.80;81.00;;;;;;5113280;27;20039;-61
2022/10/13 06:51:53;;;;;;;15.15;8.55;;;13.80;81.00;;;;;;5114233;28;20039;-61
2022/10/13 06:54:19;;;;;;;17.02;9.68;;;13.80;81.00;;;;;;5114629;28;20035;-61
2022/10/13 06:56:44;;;;;;;16.50;9.45;;;13.90;81.10;;;;;;5112751;27;20400;-62
2022/10/13 06:59:10;;;;;;;16.05;8.80;;;13.90;81.10;;;;;;5115376;28;20507;-62
2022/10/13 07:01:36;;;;;;;18.52;9.77;;;13.80;81.10;;;;;;5111596;28;20030;-60
2022/10/13 07:04:07;;;;;;;17.73;10.15;;;13.80;81.10;;;;;;5115090;27;20023;-61
2022/10/13 07:06:33;;;;;;;15.88;9.73;;;13.90;81.30;;;;;;5114184;28;20023;-61
2022/10/13 07:09:01;;;;;;;15.80;9.70;;;13.80;81.30;;;;;;5112724;28;20497;-61
2022/10/13 07:11:26;;;;;;;20.05;10.27;;;13.90;81.30;;;;;;5112159;28;20028;-61
2022/10/13 07:13:55;;;;;;;17.10;9.05;;;13.90;81.30;;;;;;5113390;28;20445;-61
2022/10/13 07:16:20;;;;;;;15.95;9.75;;;13.80;81.30;;;;;;5112857;28;20026;-61
2022/10/13 07:18:47;;;;;;;17.50;10.45;;;13.90;81.40;;;;;;5127637;27;20043;-62
2022/10/13 07:21:13;;;;;;;18.90;9.73;;;13.90;81.40;;;;;;5113974;27;20059;-60
2022/10/13 07:23:38;;;;;;;17.45;9.73;;;13.90;81.40;;;;;;5113745;28;20133;-61
2022/10/13 07:26:13;;;;;;;17.25;10.25;;;13.90;81.30;;;;;;5114046;28;20031;-60
2022/10/13 07:28:39;;;;;;;19.63;10.90;;;14.00;81.40;;;;;;5113496;28;20024;-60
2022/10/13 07:31:10;;;;;;;16.80;9.75;;;13.90;81.30;;;;;;5114283;28;20057;-60
2022/10/13 07:33:37;;;;;;;13.88;9.15;;;14.00;81.30;;;;;;5112462;28;20023;-59
2022/10/13 07:36:03;;;;;;;16.33;9.45;;;14.00;81.30;;;;;;5113603;28;20020;-60
2022/10/13 07:38:29;;;;;;;18.38;11.02;;;14.00;81.30;;;;;;5113484;28;20034;-60
2022/10/13 07:40:54;;;;;;;17.10;10.55;;;14.00;81.30;;;;;;5114293;28;20023;-60
2022/10/13 07:43:20;;;;;;;14.82;10.07;;;14.00;81.30;;;;;;5112453;28;20031;-60
2022/10/13 07:45:45;;;;;;;18.10;10.50;;;14.00;81.30;;;;;;5109024;28;20026;-60
2022/10/13 07:48:11;;;;;;;18.02;9.48;;;14.00;81.20;;;;;;5093629;28;20065;-60
2022/10/13 07:50:37;;;;;;;19.27;10.30;;;14.00;81.20;;;;;;5113184;28;20039;-60
2022/10/13 07:53:03;;;;;;;18.98;11.55;;;14.00;81.30;;;;;;5112337;28;20527;-60
2022/10/13 07:55:28;;;;;;;17.92;10.48;;;14.00;81.40;;;;;;5118539;27;20073;-60
2022/10/13 07:57:54;;;;;;;18.00;10.80;;;14.00;81.50;;;;;;5113169;28;20643;-60
2022/10/13 08:00:20;;;;;;;18.45;10.93;;;14.00;81.50;;;;;;5114380;28;20036;-60
2022/10/13 08:02:49;;;;;;;22.77;11.05;;;14.00;81.50;;;;;;5113573;28;20019;-60
2022/10/13 08:05:15;;;;;;;19.77;11.38;;;14.10;81.60;;;;;;5113496;28;20047;-60
2022/10/13 08:07:40;;;;;;;19.95;10.88;;;14.00;81.40;;;;;;5114224;28;20031;-60
2022/10/13 08:10:07;;;;;;;18.70;10.85;;;14.10;81.50;;;;;;5113543;28;20034;-60
2022/10/13 08:12:34;;;;;;;20.00;11.30;;;14.10;81.50;;;;;;5113891;28;20111;-60
2022/10/13 08:15:00;;;;;;;19.95;10.68;;;14.10;81.60;;;;;;5122534;28;20395;-60
2022/10/13 08:17:26;;;;;;;17.60;10.82;;;14.10;81.50;;;;;;5135127;27;20024;-60
2022/10/13 08:19:52;;;;;;;19.25;10.02;;;14.20;81.50;;;;;;5137086;27;20336;-60
2022/10/13 08:22:18;;;;;;;15.73;10.68;;;14.20;81.50;;;;;;5139350;27;20312;-60
2022/10/13 08:24:44;;;;;;;18.20;10.60;;;14.30;81.50;;;;;;5136942;27;20041;-60
2022/10/13 08:27:15;;;;;;;20.77;11.57;;;14.20;81.40;;;;;;5121145;27;20019;-60
2022/10/13 08:29:42;;;;;;;19.27;10.82;;;14.30;81.40;;;;;;5139587;27;20145;-60
2022/10/13 08:32:07;;;;;;;16.85;11.27;;;14.40;81.40;;;;;;5139256;27;20031;-60
2022/10/13 08:34:35;;;;;;;18.40;10.52;;;14.40;81.90;;;;;;5139320;27;20108;-60
2022/10/13 08:37:01;;;;;;;17.67;11.23;;;14.50;81.10;;;;;;5139277;27;20035;-60
2022/10/13 08:39:26;;;;;;;19.65;11.18;;;14.50;81.00;;;;;;5127071;27;20027;-60
2022/10/13 08:41:55;;;;;;;17.90;11.05;;;14.60;80.90;;;;;;5134539;27;20468;-60
2022/10/13 08:44:40;;;;;;;20.30;12.07;;;14.60;80.80;;;;;;5117810;28;20027;-60
2022/10/13 08:47:29;;;;;;;18.50;11.18;;;14.60;80.70;;;;;;5118761;28;20095;-60
2022/10/13 08:49:59;;;;;;;20.63;11.18;;;14.70;80.70;;;;;;5112579;28;20058;-60
2022/10/13 08:52:27;;;;;;;18.90;11.18;;;14.70;80.70;;;;;;5117472;28;20043;-60
2022/10/13 08:54:54;;;;;;;17.67;11.57;;;14.60;80.60;;;;;;5117398;27;20088;-60
2022/10/13 08:57:22;;;;;;;20.00;12.38;;;14.60;80.60;;;;;;5133348;27;20034;-60
2022/10/13 08:59:48;;;;;;;19.65;11.13;;;14.60;80.50;;;;;;5138910;27;20374;-60
2022/10/13 09:02:22;;;;;;;22.13;12.13;;;14.60;80.60;;;;;;5138806;27;20035;-60
2022/10/13 09:04:51;;;;;;;18.92;11.88;;;14.60;80.50;;;;;;5137776;27;20031;-60
2022/10/13 09:07:30;;;;;;;20.58;11.27;;;14.60;80.50;;;;;;5138712;27;20027;-60
2022/10/13 09:09:56;;;;;;;17.75;11.07;;;14.60;80.50;;;;;;5138624;27;20046;-60
2022/10/13 09:12:24;;;;;;;16.50;11.13;;;14.60;80.40;;;;;;5117458;27;20111;-60
2022/10/13 09:15:00;;;;;;;18.63;11.25;;;14.70;80.50;;;;;;5117706;28;20036;-60
2022/10/13 09:17:29;;;;;;;22.58;10.57;;;14.90;80.20;;;;;;5117842;28;20065;-60
2022/10/13 09:20:19;;;;;;;16.25;10.23;;;15.10;79.90;;;;;;5117625;28;20035;-60
2022/10/13 09:23:03;;;;;;;17.52;10.55;;;15.30;79.40;;;;;;5117909;28;20030;-60
2022/10/13 09:25:37;;;;;;;19.02;10.68;;;15.60;78.60;;;;;;5117813;27;20079;-60
2022/10/13 09:28:10;;;;;;;18.77;10.30;;;15.90;78.20;;;;;;5136997;27;20035;-60
2022/10/13 09:30:41;;;;;;;17.95;9.88;;;16.00;77.70;;;;;;5137661;27;20019;-60
2022/10/13 09:33:12;;;;;;;17.27;10.27;;;16.10;77.50;;;;;;5138531;27;20124;-60
2022/10/13 09:35:42;;;;;;;16.58;10.45;;;16.20;77.40;;;;;;5138296;27;20035;-60
2022/10/13 09:38:17;;;;;;;20.40;10.70;;;16.20;77.30;;;;;;5137970;27;20049;-60
2022/10/13 09:40:59;;;;;;;14.27;8.63;;;16.20;77.40;;;;;;5117719;28;20180;-60
2022/10/13 09:43:27;;;;;;;17.10;9.43;;;16.10;77.40;;;;;;5116687;28;20116;-60
2022/10/13 09:45:53;;;;;;;17.85;8.95;;;16.10;77.50;;;;;;5117609;28;20443;-60
2022/10/13 09:48:24;;;;;;;16.20;9.50;;;16.10;77.50;;;;;;5117329;28;20019;-60
2022/10/13 09:50:53;;;;;;;16.73;9.93;;;16.10;77.50;;;;;;5117279;28;20027;-60
2022/10/13 09:53:38;;;;;;;17.65;9.02;;;16.10;77.40;;;;;;5116247;27;20043;-60
2022/10/13 09:56:23;;;;;;;16.75;9.20;;;16.10;77.40;;;;;;5117092;28;20028;-60
2022/10/13 09:59:13;;;;;;;15.63;9.45;;;16.10;77.50;;;;;;5117182;28;20035;-60
2022/10/13 10:01:43;;;;;;;17.42;9.30;;;16.10;77.60;;;;;;5116873;28;20039;-61
2022/10/13 10:04:21;;;;;;;17.60;10.32;;;16.00;77.50;;;;;;5117163;28;20020;-60
2022/10/13 10:06:46;;;;;;;18.38;9.85;;;16.00;77.50;;;;;;5115860;28;20412;-60
2022/10/13 10:09:47;;;;;;;15.90;9.60;;;16.10;77.50;;;;;;5116960;28;20104;-61
2022/10/13 10:12:20;;;;;;;20.70;10.45;;;16.10;77.50;;;;;;5099936;27;20073;-60
2022/10/13 10:14:47;;;;;;;16.05;10.50;;;16.10;77.40;;;;;;5128344;27;20043;-61
2022/10/13 10:17:40;;;;;;;17.95;9.32;;;16.10;77.40;;;;;;5114479;28;20027;-60
2022/10/13 10:20:43;;;;;;;19.20;9.73;;;16.10;77.30;;;;;;5114401;27;20108;-60
2022/10/13 10:23:16;;;;;;;15.05;9.30;;;16.10;77.20;;;;;;5096723;28;20016;-60
2022/10/13 10:25:47;;;;;;;17.00;9.20;;;16.20;77.20;;;;;;5111212;28;20024;-61
2022/10/13 10:28:17;;;;;;;18.75;9.10;;;16.20;77.10;;;;;;5112421;28;20035;-61
2022/10/13 10:30:53;;;;;;;17.33;9.45;;;16.20;77.10;;;;;;5114303;27;20055;-60
2022/10/13 10:33:28;;;;;;;18.30;9.52;;;16.20;77.20;;;;;;5113962;28;20111;-61
2022/10/13 10:36:15;;;;;;;15.45;9.65;;;16.20;77.20;;;;;;5114443;28;20023;-61
2022/10/13 10:39:07;;;;;;;16.85;9.68;;;16.10;77.20;;;;;;5114241;28;20060;-60
2022/10/13 10:41:45;;;;;;;19.00;9.93;;;16.10;77.30;;;;;;5112175;27;20035;-60
2022/10/13 10:44:21;;;;;;;16.92;10.25;;;16.10;77.40;;;;;;5132313;27;20335;-60
2022/10/13 10:46:50;;;;;;;15.98;9.55;;;16.00;77.40;;;;;;5123442;27;20429;-60
2022/10/13 10:49:24;;;;;;;16.48;9.80;;;16.00;77.50;;;;;;5113811;28;20027;-60
2022/10/13 10:51:50;;;;;;;15.18;9.25;;;16.00;77.60;;;;;;5115020;27;20154;-60
2022/10/13 10:54:39;;;;;;;13.82;8.98;;;16.00;77.60;;;;;;5112636;28;20053;-60
2022/10/13 10:57:31;;;;;;;17.15;9.27;;;16.00;77.60;;;;;;5114114;28;20106;-60
2022/10/13 10:59:57;;;;;;;;;;;16.00;77.70;;;;;;5091805;27;20126;-60
2022/10/13 11:02:44;;;;;;;15.98;8.85;;;15.90;77.60;;;;;;5118481;27;20004;-60
2022/10/13 11:05:11;;;;;;;15.15;8.55;;;15.90;77.60;;;;;;5118514;27;20156;-60
2022/10/13 11:07:44;;;;;;;20.23;10.43;;;15.80;77.60;;;;;;5115846;28;20341;-60
2022/10/13 11:10:12;;;;;;;15.10;8.90;;;15.90;77.90;;;;;;5115610;28;20050;-60
2022/10/13 11:12:50;;;;;;;19.67;9.80;;;15.80;78.10;;;;;;5115571;28;20031;-60
2022/10/13 11:15:23;;;;;;;17.58;9.93;;;15.70;78.40;;;;;;5069726;28;20395;-60
2022/10/13 11:17:49;;;;;;;17.42;10.57;;;15.60;78.60;;;;;;5070424;28;20036;-60
2022/10/13 11:20:20;;;;;;;17.45;10.40;;;15.60;78.90;;;;;;5057684;28;20041;-60
2022/10/13 11:22:58;;;;;;;;;;;15.50;79.40;;;;;;5065803;28;20029;-60
2022/10/13 11:25:40;;;;;;;15.50;9.50;;;15.50;79.30;;;;;;5057917;28;20345;-60
2022/10/13 11:28:21;;;;;;;19.08;10.65;;;15.40;80.30;;;;;;5045220;28;20327;-60
2022/10/13 11:31:09;;;;;;;17.48;10.75;;;15.40;79.80;;;;;;5068973;28;20030;-60
2022/10/13 11:33:38;;;;;;;16.60;10.50;;;15.40;80.00;;;;;;5059162;28;20037;-60
2022/10/13 11:36:35;;;;;;;16.75;10.73;;;15.40;80.10;;;;;;5051031;28;20032;-60
2022/10/13 11:39:29;;;;;;;19.70;10.90;;;15.40;80.30;;;;;;5064894;28;20028;-60
2022/10/13 11:42:13;;;;;;;20.33;11.43;;;15.30;80.40;;;;;;5061771;28;20059;-60
2022/10/13 11:45:00;;;;;;;19.13;10.98;;;15.30;80.70;;;;;;5060041;28;20064;-60
2022/10/13 11:47:54;;;;;;;19.25;10.95;;;15.30;80.80;;;;;;5060934;28;20036;-60
2022/10/13 11:50:45;;;;;;;17.80;11.63;;;15.20;80.90;;;;;;5051989;28;20029;-60
2022/10/13 11:53:23;;;;;;;17.17;11.80;;;15.20;81.00;;;;;;5057997;28;20437;-60
2022/10/13 11:55:51;;;;;;;18.42;11.10;;;15.20;81.10;;;;;;5047555;28;20032;-61
2022/10/13 11:58:26;;;;;;;18.52;12.35;;;15.20;81.10;;;;;;5051749;28;20365;-61
2022/10/13 12:01:05;;;;;;;20.88;11.90;;;15.20;81.30;;;;;;5030830;28;20036;-61
2022/10/13 12:03:49;;;;;;;18.77;12.60;;;15.20;81.40;;;;;;5036409;28;20025;-60
2022/10/13 12:06:34;;;;;;;17.92;11.65;;;15.20;81.50;;;;;;5032692;28;20068;-61
2022/10/13 12:09:13;;;;;;;18.70;11.85;;;15.10;81.50;;;;;;5037926;28;20029;-61
2022/10/13 12:11:39;;;;;;;21.77;11.20;;;15.10;81.70;;;;;;5046205;28;20018;-60
2022/10/13 12:14:20;;;;;;;20.65;12.25;;;15.10;81.70;;;;;;5049305;28;20501;-60
2022/10/13 12:17:00;;;;;;;20.10;11.98;;;15.10;81.90;;;;;;5048399;28;20473;-61
2022/10/13 12:19:30;;;;;;;19.30;11.13;;;15.10;81.90;;;;;;5049592;28;20021;-61
2022/10/13 12:21:59;;;;;;;17.95;12.05;;;15.10;81.90;;;;;;5049571;28;20040;-60
2022/10/13 12:24:27;;;;;;;16.38;11.63;;;15.20;82.00;;;;;;5070667;28;20028;-61
2022/10/13 12:26:53;;;;;;;21.50;13.27;;;15.20;82.00;;;;;;5039546;28;20069;-61
2022/10/13 12:29:27;;;;;;;20.95;12.32;;;15.20;82.10;;;;;;5051316;28;20048;-60
2022/10/13 12:31:53;;;;;;;20.70;11.98;;;15.20;82.20;;;;;;5055407;28;20037;-60
2022/10/13 12:34:24;;;;;;;19.98;12.38;;;15.20;82.20;;;;;;5039116;28;20040;-60
2022/10/13 12:36:59;;;;;;;17.88;12.15;;;15.20;82.30;;;;;;5038911;28;20446;-60
2022/10/13 12:39:28;;;;;;;20.88;11.20;;;15.20;82.40;;;;;;5039456;28;20025;-61
2022/10/13 12:41:54;;;;;;;20.15;12.10;;;15.20;82.50;;;;;;5054734;28;20438;-61
2022/10/13 12:44:23;;;;;;;18.48;12.48;;;15.20;82.50;;;;;;5055768;28;20061;-60
2022/10/13 12:46:55;;;;;;;19.38;12.25;;;15.20;82.50;;;;;;5048679;28;20454;-61
2022/10/13 12:49:26;;;;;;;18.23;11.57;;;15.20;82.50;;;;;;5042286;28;20484;-61